nws-alerts: Checking more than four warning/county codes can delay the loading of your pages. You should use a cron job to get the data.

Nearby METAR Weather Reports

 

KETB - West Bend, Wisconsin, USA
Distance from station: E 4mi, 6km
Updated: 09/22/2019 9:15am
Light rain, Overcast
Light rain, Overcast
 Wind from calm
Wind: Calm
Temperature: 64°F , 18°C
Dew Point: 64°F , 18°C
Humidity: 100%
Barometer: 29.83 inHg , 1010.2 hPa
Summary: Light rain
Clouds: Overcast
Visibility: 7 miles , 11 km
Cloud details: Overcast 2800 ft
2019/09/22 14:15 KETB 221415Z AUTO 00000KT 7SM -RA OVC028 18/18 A2983 RMK AO2 P0006
KFLD - Fond Du Lac, Wisconsin, USA
Distance from station: NNW 27mi, 44km
Updated: 09/22/2019 8:53am
Rain, Mist, Overcast
Rain, Mist, Overcast
 Wind from SSE
Wind: SSE 5 mph , 7 km/h
Temperature: 66°F , 19°C
Dew Point: 64°F , 18°C
Humidity: 94%
Barometer: 29.82 inHg , 1009.8 hPa
Summary: Rain, Mist
Clouds: Overcast
Visibility: 6 miles , 10 km
Cloud details: Overcast 10000 ft
2019/09/22 13:53 KFLD 221353Z AUTO 15004KT 6SM RA BR OVC100 19/18 A2982 RMK AO2 WSHFT 1250 SLP096 P0012 T01940178
 
KSBM - Sheboygan, Wisconsin, USA
Distance from station: NE 31mi, 50km
Updated: 09/22/2019 9:35am
Light rain, Mist, Overcast
Light rain, Mist, Overcast
 Wind from SW
Wind: SW 6 mph , 9 km/h
Temperature: 70°F , 21°C
Dew Point: 66°F , 19°C
Humidity: 88%
Barometer: 29.82 inHg , 1009.8 hPa
Summary: Light rain, Mist
Clouds: Overcast
Visibility: 3 miles , 5 km
Cloud details: Few Clouds 1100 ft
Mostly cloudy 3900 ft
Overcast 6500 ft
2019/09/22 14:35 KSBM 221435Z AUTO 23005KT 3SM -RA BR FEW011 BKN039 OVC065 21/19 A2982 RMK AO2 RAB1358 PRESFR P0023 T02060194
KMKE - Milwaukee, Wisconsin, USA
Distance from station: SSE 36mi, 58km
Updated: 09/22/2019 9:18am
Light rain, Overcast
Light rain, Overcast
 Wind from SSW
Wind: SSW 15 mph , 24 km/h
Temperature: 73°F , 23°C
Dew Point: 68°F , 20°C
Humidity: 83%
Barometer: 29.85 inHg , 1010.8 hPa
Summary: Light rain
Clouds: Overcast
Visibility: 10 miles , 16 km
Cloud details: Few Clouds 900 ft
Mostly cloudy 1400 ft
Overcast 4000 ft
2019/09/22 14:18 KMKE 221418Z 20013KT 10SM -RA FEW009 BKN014 OVC040 23/20 A2985 RMK AO2 RAE1356B13 P0000 T02280200
 
KOSH - Oshkosh, Wisconsin, USA
Distance from station: NNW 41mi, 66km
Updated: 09/22/2019 8:53am
Mostly cloudy
Mostly cloudy
 Wind from W
Wind: W 5 mph , 7 km/h
Temperature: 68°F , 20°C
Dew Point: 64°F , 18°C
Humidity: 88%
Barometer: 29.79 inHg , 1008.8 hPa
Clouds: Mostly cloudy
Visibility: 10 miles , 16 km
Cloud details: Mostly cloudy 11000 ft
2019/09/22 13:53 KOSH 221353Z 27004KT 10SM BKN110 20/18 A2979 RMK AO2 RAE51 SLP076 P0006 T02000178
KENW - Kenosha, Wisconsin, USA
Distance from station: SSE 58mi, 94km
Updated: 09/22/2019 8:53am
Rain, Mist, Overcast
Rain, Mist, Overcast
 Wind from SSW
Wind: SSW 12 mph , 19 km/h, Gust: 23 mph , 37 km/h
Temperature: 72°F , 22°C
Dew Point: 70°F , 21°C
Humidity: 94%
Barometer: 29.88 inHg , 1011.9 hPa
Summary: Rain, Mist
Clouds: Overcast
Visibility: 3 miles , 5 km
Cloud details: Few Clouds 1300 ft
Mostly cloudy 7500 ft
Overcast 11000 ft
2019/09/22 13:53 KENW 221353Z 21010G20KT 3SM RA BR FEW013 BKN075 OVC110 22/21 A2988 RMK AO2 SLP115 P0008 T02220211
 
KMSN - Madison, Wisconsin, USA
Distance from station: WSW 61mi, 98km
Updated: 09/22/2019 9:06am
Light rain, Mist, Overcast
Light rain, Mist, Overcast
 Wind from NNW
Wind: NNW 5 mph , 7 km/h
Temperature: 66°F , 19°C
Dew Point: 64°F , 18°C
Humidity: 94%
Barometer: 29.84 inHg , 1010.5 hPa
Summary: Light rain, Mist
Clouds: Overcast
Visibility: 6 miles , 10 km
Cloud details: Few Clouds 700 ft
Partly cloudy 2600 ft
Overcast 8000 ft
2019/09/22 14:06 KMSN 221406Z 33004KT 6SM -RA BR FEW007 SCT026 OVC080 19/18 A2984 RMK AO2 P0002 T01940183
KSAW - Marquette, Michigan, USA
Distance from station: NNE 75mi, 121km
Updated: 09/22/2019 8:46am
Overcast
Overcast
 Wind from SSW
Wind: SSW 7 mph , 11 km/h
Temperature: 70°F , 21°C
Dew Point: 68°F , 20°C
Humidity: 94%
Barometer: 29.78 inHg , 1008.5 hPa
Clouds: Overcast
Visibility: 10 miles , 16 km
Cloud details: Partly cloudy 1000 ft
Mostly cloudy 2400 ft
Overcast 4300 ft
2019/09/22 13:46 KSAW 221346Z 21006KT 10SM SCT010 BKN024 OVC043 21/20 A2978
 
KIMT - Iron Mountain, Michigan, USA
Distance from station: N 28mi, 45km
Updated: 09/22/2019 8:54am
Few Clouds
Few Clouds
 Wind from S
Wind: S 6 mph , 9 km/h
Temperature: 72°F , 22°C
Dew Point: 68°F , 20°C
Humidity: 88%
Barometer: 29.77 inHg , 1008.1 hPa
Clouds: Few Clouds
Visibility: 7 miles , 11 km
Cloud details: Few Clouds 6000 ft
2019/09/22 13:54 KIMT 221354Z AUTO 19005KT 7SM FEW060 22/20 A2977 RMK AO2 SLP077 T02170200
KGRB - Green Bay, Wisconsin, USA
Distance from station: NE 6mi, 9km
Updated: 09/22/2019 9:03am
Light rain, Partly cloudy
Light rain, Partly cloudy
 Wind from SE
Wind: SE 7 mph , 11 km/h
Temperature: 70°F , 21°C
Dew Point: 66°F , 19°C
Humidity: 88%
Barometer: 29.81 inHg , 1009.5 hPa
Summary: Light rain
Clouds: Partly cloudy
Visibility: 10 miles , 16 km
Cloud details: Few Clouds 1400 ft
Partly cloudy 11000 ft
2019/09/22 14:03 KGRB 221403Z 14006KT 10SM -RA FEW014 SCT110 21/19 A2981 RMK AO2 P0000 T02060189
 
KAUW - Wausau, Wisconsin, USA
Distance from station: WNW 78mi, 125km
Updated: 09/22/2019 8:54am
Light rain, Overcast
Light rain, Overcast
 Wind from WNW
Wind: WNW 7 mph , 11 km/h
Temperature: 68°F , 20°C
Dew Point: 66°F , 19°C
Humidity: 94%
Barometer: 29.81 inHg , 1009.5 hPa
Summary: Light rain
Clouds: Overcast
Visibility: 10 miles , 16 km
Cloud details: Few Clouds 2200 ft
Mostly cloudy 4000 ft
Overcast 11000 ft
2019/09/22 13:54 KAUW 221354Z AUTO 29006KT 10SM -RA FEW022 BKN040 OVC110 20/19 A2981 RMK AO2 RAB53 SLP091 P0000 T02000189
KORD - Chicago O'hare, Illinois, USA
Distance from station: NNE 51mi, 82km
Updated: 09/22/2019 8:51am
Mostly cloudy
Mostly cloudy
 Wind from S
Wind: S 9 mph , 15 km/h
Temperature: 73°F , 23°C
Dew Point: 66°F , 19°C
Humidity: 78%
Barometer: 29.91 inHg , 1012.9 hPa
Clouds: Mostly cloudy
Visibility: 10 miles , 16 km
Cloud details: Partly cloudy 5000 ft
Mostly cloudy 9000 ft
Mostly cloudy 25000 ft
2019/09/22 13:51 KORD 221351Z 19008KT 10SM SCT050 BKN090 BKN250 23/19 A2991 RMK AO2 SLP123 T02280194
 
KVOK - Volk/Camp Douglas, Wisconsin, USA
Distance from station: NW 69mi, 111km
Updated: 09/22/2019 8:56am
Clear
Clear
 Wind from SW
Wind: SW 3 mph , 6 km/h
Temperature: 66°F , 19°C
Dew Point: 66°F , 19°C
Humidity: 100%
Barometer: 29.81 inHg , 1009.5 hPa
Clouds: Clear
Visibility: 10 miles , 16 km
2019/09/22 13:56 KVOK 221356Z AUTO 22003KT 10SM CLR 19/19 A2981 RMK AO2 SLP094 T01920192 $
KLNR - Lone Rock, Wisconsin, USA
Distance from station: W 49mi, 79km
Updated: 09/22/2019 8:56am
Light rain, Mostly cloudy
Light rain, Mostly cloudy
 Wind from SE
Wind: SE 6 mph , 9 km/h
Temperature: 68°F , 20°C
Dew Point: 66°F , 19°C
Humidity: 94%
Barometer: 29.81 inHg , 1009.5 hPa
Summary: Light rain
Clouds: Mostly cloudy
Visibility: 7 miles , 11 km
Cloud details: Few Clouds 6000 ft
Partly cloudy 7500 ft
Mostly cloudy 9500 ft
2019/09/22 13:56 KLNR 221356Z AUTO 13005KT 7SM -RA FEW060 SCT075 BKN095 20/19 A2981 RMK AO2 SLP087 P0006 T02000194